Time;durP1;ratioP1;P1;durP2;ratioP2;P2;SDS_P1;SDS_P2;PMS_P1;PMS_P2;Temp;Humidity;BMP_temperature;BMP_pressure;BME280_temperature;BME280_humidity;BME280_pressure;Samples;Min_cycle;Max_cycle;Signal;HPM_P1;HPM_P2
2022/07/06 00:00:31;;;;;;;10.25;1.85;;;13.00;87.20;;;;;;5042930;28;20067;-68
2022/07/06 00:02:57;;;;;;;6.82;2.20;;;13.00;87.10;;;;;;5040549;28;20040;-68
2022/07/06 00:05:22;;;;;;;3.92;1.48;;;13.00;87.10;;;;;;5042686;28;20044;-68
2022/07/06 00:07:48;;;;;;;2.78;1.20;;;13.00;86.90;;;;;;5048699;28;20025;-68
2022/07/06 00:10:13;;;;;;;7.13;1.80;;;13.00;87.10;;;;;;5042148;28;20550;-68
2022/07/06 00:12:39;;;;;;;6.57;1.75;;;13.20;87.10;;;;;;5045230;28;20040;-68
2022/07/06 00:15:05;;;;;;;5.97;1.80;;;13.10;86.60;;;;;;5046254;28;20048;-68
2022/07/06 00:17:30;;;;;;;7.57;1.73;;;13.20;86.80;;;;;;5034992;28;20045;-68
2022/07/06 00:19:56;;;;;;;7.95;1.90;;;13.20;86.50;;;;;;5045600;28;20350;-68
2022/07/06 00:22:21;;;;;;;4.78;1.85;;;13.20;86.30;;;;;;5044541;28;20037;-68
2022/07/06 00:24:47;;;;;;;7.90;1.70;;;13.30;86.20;;;;;;5041650;28;20032;-68
2022/07/06 00:27:12;;;;;;;5.55;1.60;;;13.30;86.40;;;;;;5045871;28;20041;-68
2022/07/06 00:29:38;;;;;;;5.03;1.70;;;13.30;86.20;;;;;;5044431;28;20453;-68
2022/07/06 00:32:04;;;;;;;4.85;1.45;;;13.20;86.10;;;;;;5046737;28;20044;-68
2022/07/06 00:34:29;;;;;;;5.40;1.25;;;13.20;86.40;;;;;;5038872;28;20074;-68
2022/07/06 00:36:55;;;;;;;3.97;1.60;;;13.10;86.60;;;;;;5043764;28;20147;-68
2022/07/06 00:39:21;;;;;;;4.72;1.45;;;13.10;86.80;;;;;;5046003;28;20040;-68
2022/07/06 00:41:47;;;;;;;4.65;1.73;;;13.10;86.80;;;;;;5040287;28;20021;-68
2022/07/06 00:44:12;;;;;;;5.55;1.90;;;13.20;86.60;;;;;;5043457;28;20029;-68
2022/07/06 00:46:38;;;;;;;4.65;1.70;;;13.10;86.90;;;;;;5045796;28;20079;-68
2022/07/06 00:49:04;;;;;;;4.97;1.77;;;13.10;87.00;;;;;;5044454;28;20040;-68
2022/07/06 00:51:31;;;;;;;7.07;1.77;;;13.00;87.30;;;;;;5045782;28;20029;-68
2022/07/06 00:54:03;;;;;;;7.10;2.10;;;13.00;87.60;;;;;;5044586;28;20413;-68
2022/07/06 00:56:31;;;;;;;5.93;1.85;;;13.00;87.60;;;;;;5038468;28;20124;-68
2022/07/06 00:58:57;;;;;;;6.20;1.70;;;13.00;87.80;;;;;;5041380;28;20029;-68
2022/07/06 01:01:23;;;;;;;5.85;1.80;;;13.00;87.80;;;;;;5044740;28;20136;-68
2022/07/06 01:03:48;;;;;;;5.55;1.70;;;13.00;87.70;;;;;;5047965;28;20115;-68
2022/07/06 01:06:14;;;;;;;6.32;1.98;;;13.00;87.80;;;;;;5042538;28;20404;-68
2022/07/06 01:08:40;;;;;;;3.35;1.83;;;13.00;87.90;;;;;;5045837;28;20041;-68
2022/07/06 01:11:06;;;;;;;3.55;1.45;;;13.00;87.80;;;;;;5040948;28;20025;-68
2022/07/06 01:13:33;;;;;;;5.88;1.70;;;13.00;87.90;;;;;;5037897;28;20473;-68
2022/07/06 01:15:59;;;;;;;7.18;2.00;;;13.00;87.80;;;;;;5048919;28;20025;-68
2022/07/06 01:18:25;;;;;;;4.93;2.03;;;13.00;87.90;;;;;;5045587;28;20061;-68
2022/07/06 01:20:50;;;;;;;9.20;1.70;;;13.00;87.80;;;;;;5047511;28;20549;-68
2022/07/06 01:23:16;;;;;;;3.90;1.38;;;13.00;87.80;;;;;;5044738;28;20037;-68
2022/07/06 01:25:41;;;;;;;5.80;1.58;;;13.00;87.80;;;;;;5041080;28;20120;-68
2022/07/06 01:28:07;;;;;;;5.13;1.70;;;13.00;87.90;;;;;;5040159;28;20039;-68
2022/07/06 01:30:32;;;;;;;9.48;1.85;;;12.90;88.00;;;;;;5045955;28;20033;-68
2022/07/06 01:32:58;;;;;;;4.13;1.50;;;13.00;87.80;;;;;;5042803;28;20028;-68
2022/07/06 01:35:26;;;;;;;5.65;1.35;;;13.00;87.60;;;;;;5044725;28;20132;-68
2022/07/06 01:37:51;;;;;;;3.00;1.45;;;12.90;87.70;;;;;;5044714;28;20098;-68
2022/07/06 01:40:17;;;;;;;6.82;1.95;;;12.90;87.70;;;;;;5043499;28;20033;-68
2022/07/06 01:42:42;;;;;;;8.32;2.00;;;13.00;87.70;;;;;;5042121;28;20048;-68
2022/07/06 01:45:08;;;;;;;3.95;1.55;;;13.00;87.70;;;;;;5040439;28;20112;-68
2022/07/06 01:47:34;;;;;;;7.50;1.65;;;13.10;87.50;;;;;;5045365;28;20053;-68
2022/07/06 01:50:02;;;;;;;4.38;1.65;;;13.10;87.40;;;;;;5039675;28;20029;-68
2022/07/06 01:52:28;;;;;;;4.20;1.60;;;13.00;87.30;;;;;;5044363;28;20094;-68
2022/07/06 01:54:55;;;;;;;9.85;1.58;;;13.00;87.60;;;;;;5041388;28;20177;-68
2022/07/06 01:57:20;;;;;;;3.90;1.70;;;13.00;87.70;;;;;;5044152;28;20069;-68
2022/07/06 01:59:46;;;;;;;6.00;1.67;;;13.00;87.80;;;;;;5039531;28;20065;-68
2022/07/06 02:02:15;;;;;;;5.93;1.27;;;13.00;88.00;;;;;;5041990;28;20079;-68
2022/07/06 02:04:40;;;;;;;5.82;1.70;;;13.00;88.00;;;;;;5046010;28;20355;-68
2022/07/06 02:07:06;;;;;;;7.18;1.55;;;12.90;88.10;;;;;;5045274;28;20036;-68
2022/07/06 02:09:31;;;;;;;3.53;1.67;;;12.90;88.40;;;;;;5040922;28;20067;-68
2022/07/06 02:11:57;;;;;;;5.20;1.73;;;12.80;88.60;;;;;;5046136;28;20042;-68
2022/07/06 02:14:22;;;;;;;2.90;1.48;;;13.00;88.60;;;;;;5041794;28;20026;-68
2022/07/06 02:16:48;;;;;;;8.43;1.70;;;12.90;88.60;;;;;;5046266;28;20412;-68
2022/07/06 02:19:13;;;;;;;5.80;2.00;;;13.00;88.50;;;;;;5045767;28;20061;-68
2022/07/06 02:21:39;;;;;;;2.53;1.60;;;13.00;88.60;;;;;;5050615;28;20036;-68
2022/07/06 02:24:05;;;;;;;5.18;1.88;;;12.90;88.70;;;;;;5044618;28;20151;-68
2022/07/06 02:26:30;;;;;;;5.82;1.73;;;12.90;89.00;;;;;;5046490;28;20044;-68
2022/07/06 02:28:56;;;;;;;5.88;1.77;;;12.90;89.00;;;;;;5050656;28;20044;-68
2022/07/06 02:31:21;;;;;;;6.53;1.70;;;13.00;89.10;;;;;;5050372;28;20036;-68
2022/07/06 02:33:47;;;;;;;4.22;1.40;;;13.00;88.90;;;;;;5046219;28;20037;-68
2022/07/06 02:36:12;;;;;;;2.95;1.52;;;13.00;89.00;;;;;;5049372;28;20037;-68
2022/07/06 02:38:38;;;;;;;5.50;1.50;;;13.00;89.20;;;;;;5046650;28;20033;-68
2022/07/06 02:41:03;;;;;;;4.78;1.50;;;13.00;89.20;;;;;;5050010;28;20365;-68
2022/07/06 02:43:29;;;;;;;6.13;1.60;;;13.00;89.20;;;;;;5040267;28;20036;-68
2022/07/06 02:45:54;;;;;;;3.47;1.60;;;12.90;89.20;;;;;;5049644;28;20094;-68
2022/07/06 02:48:21;;;;;;;5.10;1.73;;;12.90;89.40;;;;;;5048443;28;20041;-68
2022/07/06 02:50:46;;;;;;;3.03;1.55;;;12.90;89.50;;;;;;5045317;28;20025;-68
2022/07/06 02:53:12;;;;;;;6.00;1.50;;;12.90;89.70;;;;;;5045545;28;20055;-68
2022/07/06 02:55:38;;;;;;;6.18;1.70;;;13.00;89.70;;;;;;5044290;28;20082;-68
2022/07/06 02:58:03;;;;;;;4.47;1.60;;;13.00;89.70;;;;;;5045735;28;20033;-68
2022/07/06 03:00:29;;;;;;;4.45;1.65;;;13.00;89.70;;;;;;5045680;28;20029;-68
2022/07/06 03:02:57;;;;;;;5.82;1.95;;;13.00;89.70;;;;;;5046076;28;20111;-68
2022/07/06 03:05:23;;;;;;;6.10;1.63;;;13.00;89.60;;;;;;5045308;28;20112;-68
2022/07/06 03:07:49;;;;;;;7.95;2.03;;;13.00;89.60;;;;;;5036331;28;20027;-68
2022/07/06 03:10:14;;;;;;;9.32;2.15;;;13.10;89.50;;;;;;5037108;28;20114;-68
2022/07/06 03:12:40;;;;;;;6.40;1.80;;;13.00;89.50;;;;;;5047928;28;20074;-68
2022/07/06 03:15:06;;;;;;;5.97;1.83;;;13.00;89.60;;;;;;5043084;28;20024;-68
2022/07/06 03:17:31;;;;;;;6.03;1.90;;;13.00;89.70;;;;;;5039187;28;20041;-68
2022/07/06 03:19:57;;;;;;;7.32;1.85;;;13.00;89.70;;;;;;5048497;28;20060;-68
2022/07/06 03:22:22;;;;;;;5.13;1.77;;;13.00;89.90;;;;;;5048537;28;20474;-68
2022/07/06 03:24:48;;;;;;;7.00;2.20;;;12.90;90.10;;;;;;5044182;28;20433;-68
2022/07/06 03:27:15;;;;;;;8.43;2.08;;;13.00;90.00;;;;;;5037664;28;20075;-68
2022/07/06 03:29:40;;;;;;;3.67;1.75;;;13.00;89.90;;;;;;5045843;28;20045;-68
2022/07/06 03:32:06;;;;;;;5.43;1.88;;;12.90;90.00;;;;;;5044666;28;20091;-68
2022/07/06 03:34:31;;;;;;;5.80;2.20;;;13.00;90.20;;;;;;5033507;28;20380;-68
2022/07/06 03:36:57;;;;;;;4.45;1.70;;;13.00;90.20;;;;;;5048542;28;20037;-68
2022/07/06 03:39:22;;;;;;;10.82;2.20;;;13.10;90.00;;;;;;5046710;28;20049;-68
2022/07/06 03:41:48;;;;;;;5.60;1.77;;;13.00;90.00;;;;;;5045675;28;20033;-68
2022/07/06 03:44:13;;;;;;;4.72;1.67;;;13.10;90.00;;;;;;5041191;28;20388;-68
2022/07/06 03:46:39;;;;;;;7.57;2.22;;;13.10;89.90;;;;;;5045878;28;20116;-68
2022/07/06 03:49:04;;;;;;;5.28;1.90;;;13.10;89.70;;;;;;5044988;28;20108;-68
2022/07/06 03:51:30;;;;;;;6.68;1.92;;;13.10;89.60;;;;;;5044457;28;20495;-68
2022/07/06 03:53:55;;;;;;;7.85;1.40;;;13.10;89.50;;;;;;5048735;28;20434;-68
2022/07/06 03:56:30;;;;;;;2.95;1.67;;;13.10;89.70;;;;;;5043516;28;20041;-68
2022/07/06 03:59:00;;;;;;;6.38;1.95;;;13.10;89.90;;;;;;5042843;28;20486;-68
2022/07/06 04:01:26;;;;;;;4.53;1.85;;;13.10;90.10;;;;;;5040139;28;20029;-68
2022/07/06 04:03:52;;;;;;;4.50;1.45;;;13.20;90.00;;;;;;5046123;28;20033;-68
2022/07/06 04:06:17;;;;;;;3.47;1.73;;;13.10;90.00;;;;;;5045791;28;20502;-68
2022/07/06 04:08:43;;;;;;;5.63;1.90;;;13.10;89.70;;;;;;5044156;28;20107;-68
2022/07/06 04:11:08;;;;;;;3.88;1.75;;;13.20;89.40;;;;;;5043349;28;20040;-68
2022/07/06 04:13:34;;;;;;;2.85;1.52;;;13.40;89.30;;;;;;5038281;28;20066;-68
2022/07/06 04:15:59;;;;;;;4.88;1.50;;;13.30;89.30;;;;;;5045279;28;20136;-68
2022/07/06 04:18:25;;;;;;;5.45;1.70;;;13.30;89.10;;;;;;5045017;28;20135;-67
2022/07/06 04:20:51;;;;;;;3.80;1.63;;;13.40;88.90;;;;;;5047666;28;20491;-67
2022/07/06 04:23:16;;;;;;;6.50;1.42;;;13.40;89.00;;;;;;5046548;28;20093;-67
2022/07/06 04:25:42;;;;;;;5.93;1.40;;;13.40;88.70;;;;;;5043614;28;20037;-67
2022/07/06 04:28:07;;;;;;;9.45;1.63;;;13.50;88.70;;;;;;5040367;28;20090;-66
2022/07/06 04:30:33;;;;;;;3.60;1.40;;;13.50;88.50;;;;;;5041127;28;20110;-66
2022/07/06 04:32:58;;;;;;;6.18;1.55;;;13.50;88.50;;;;;;5045492;28;20029;-66
2022/07/06 04:35:24;;;;;;;4.63;1.30;;;13.60;88.20;;;;;;5043350;28;20060;-66
2022/07/06 04:37:50;;;;;;;3.13;1.50;;;13.70;88.10;;;;;;5040424;28;20041;-66
2022/07/06 04:40:15;;;;;;;6.53;1.13;;;13.80;87.90;;;;;;5038131;28;20064;-66
2022/07/06 04:42:41;;;;;;;3.22;1.40;;;13.70;87.70;;;;;;5040011;28;20534;-66
2022/07/06 04:45:07;;;;;;;2.90;1.45;;;13.70;87.90;;;;;;5035563;28;20030;-66
2022/07/06 04:47:32;;;;;;;4.35;1.20;;;13.70;87.40;;;;;;5039420;28;20127;-66
2022/07/06 04:49:58;;;;;;;4.80;1.50;;;13.80;87.40;;;;;;5040502;28;20066;-66
2022/07/06 04:52:23;;;;;;;3.60;1.13;;;13.70;87.00;;;;;;5046275;28;20041;-66
2022/07/06 04:54:49;;;;;;;3.03;1.10;;;13.70;87.00;;;;;;5043904;28;20035;-66
2022/07/06 04:57:14;;;;;;;6.50;1.40;;;13.70;86.80;;;;;;5042616;28;20108;-66
2022/07/06 04:59:40;;;;;;;3.70;1.35;;;13.70;86.90;;;;;;5035415;28;20100;-66
2022/07/06 05:02:06;;;;;;;4.47;1.20;;;13.60;87.20;;;;;;5045147;28;20107;-66
2022/07/06 05:04:31;;;;;;;5.10;1.35;;;13.60;86.90;;;;;;5048225;28;20076;-66
2022/07/06 05:06:57;;;;;;;2.17;0.80;;;13.60;87.00;;;;;;5048548;28;20040;-66
2022/07/06 05:09:23;;;;;;;1.85;0.90;;;13.60;86.50;;;;;;5045260;28;20159;-66
2022/07/06 05:11:48;;;;;;;3.38;0.90;;;13.60;85.90;;;;;;5045085;28;20033;-66
2022/07/06 05:14:13;;;;;;;3.75;0.75;;;13.80;85.90;;;;;;5045890;28;20082;-66
2022/07/06 05:16:39;;;;;;;3.47;0.80;;;13.80;84.80;;;;;;5047423;28;20036;-66
2022/07/06 05:19:05;;;;;;;3.67;0.75;;;13.80;84.30;;;;;;5048538;28;20068;-66
2022/07/06 05:21:30;;;;;;;4.28;0.70;;;14.00;84.00;;;;;;5046214;28;20345;-66
2022/07/06 05:23:56;;;;;;;5.78;0.60;;;14.10;83.90;;;;;;5046745;28;20052;-66
2022/07/06 05:26:21;;;;;;;2.40;0.68;;;14.00;84.10;;;;;;5043976;28;20372;-66
2022/07/06 05:28:46;;;;;;;2.92;0.90;;;14.10;84.60;;;;;;5040663;28;20040;-66
2022/07/06 05:31:12;;;;;;;4.45;0.82;;;14.10;84.80;;;;;;5046078;28;20041;-66
2022/07/06 05:33:38;;;;;;;1.25;0.90;;;14.10;84.80;;;;;;5048410;28;20106;-66
2022/07/06 05:36:03;;;;;;;2.67;0.93;;;14.10;84.40;;;;;;5043780;28;20490;-66
2022/07/06 05:38:29;;;;;;;3.33;0.68;;;14.30;84.40;;;;;;5042718;28;20052;-66
2022/07/06 05:40:54;;;;;;;2.45;0.80;;;14.30;84.40;;;;;;5047149;28;20094;-66
2022/07/06 05:43:20;;;;;;;3.75;0.80;;;14.40;84.50;;;;;;5045354;28;20037;-66
2022/07/06 05:45:45;;;;;;;4.22;0.95;;;14.30;84.10;;;;;;5038453;28;20527;-66
2022/07/06 05:50:55;;;;;;;6.90;1.10;;;14.30;84.80;;;;;;5046323;28;20051;-66
2022/07/06 05:53:20;;;;;;;5.20;1.35;;;14.20;85.40;;;;;;5045013;28;20041;-66
2022/07/06 05:55:47;;;;;;;6.18;1.20;;;14.20;85.50;;;;;;5045378;28;20540;-66
2022/07/06 05:58:13;;;;;;;3.47;1.13;;;14.40;85.50;;;;;;5050045;28;20476;-66
2022/07/06 06:00:38;;;;;;;5.93;1.40;;;14.50;85.50;;;;;;5050695;28;20099;-66
2022/07/06 06:03:04;;;;;;;5.97;1.10;;;14.50;84.80;;;;;;5047745;28;20111;-66
2022/07/06 06:05:29;;;;;;;6.10;1.33;;;14.60;84.90;;;;;;5047577;28;20033;-66
2022/07/06 06:07:55;;;;;;;5.18;1.20;;;14.70;84.60;;;;;;5044307;28;20452;-66
2022/07/06 06:10:23;;;;;;;5.93;1.40;;;14.60;84.30;;;;;;5042853;28;20037;-66
2022/07/06 06:12:49;;;;;;;5.43;1.17;;;14.80;84.00;;;;;;5048626;28;20032;-66
2022/07/06 06:15:15;;;;;;;2.92;0.90;;;14.80;84.10;;;;;;5049065;28;20033;-66
2022/07/06 06:17:40;;;;;;;6.35;1.20;;;14.90;83.90;;;;;;5047291;28;20067;-66
2022/07/06 06:20:09;;;;;;;5.15;1.30;;;14.90;83.40;;;;;;5048309;28;20053;-66
2022/07/06 06:22:48;;;;;;;5.22;0.95;;;14.80;83.30;;;;;;5050062;28;20028;-66
2022/07/06 06:25:15;;;;;;;4.82;1.00;;;15.00;83.20;;;;;;5046863;28;20033;-66
2022/07/06 06:27:41;;;;;;;3.60;1.20;;;15.00;82.50;;;;;;5049438;28;20032;-66
2022/07/06 06:30:07;;;;;;;6.03;1.02;;;15.00;82.20;;;;;;5048591;28;20503;-66
2022/07/06 06:32:33;;;;;;;2.03;0.80;;;15.10;82.30;;;;;;5045177;28;20041;-66
2022/07/06 06:34:58;;;;;;;3.78;1.10;;;15.10;81.20;;;;;;5043779;28;20082;-66
2022/07/06 06:37:24;;;;;;;3.65;0.75;;;15.00;80.70;;;;;;5045549;28;20771;-66
2022/07/06 06:39:49;;;;;;;4.05;0.98;;;15.10;81.60;;;;;;5048334;28;20060;-66
2022/07/06 06:42:15;;;;;;;2.03;0.82;;;15.00;81.00;;;;;;5044816;28;20052;-66
2022/07/06 06:44:40;;;;;;;3.33;0.82;;;15.20;81.10;;;;;;5049140;28;20495;-66
2022/07/06 06:47:06;;;;;;;6.55;1.17;;;15.40;80.30;;;;;;5046498;28;20124;-66
2022/07/06 06:49:31;;;;;;;3.83;1.00;;;15.40;80.20;;;;;;5045002;28;20068;-66
2022/07/06 06:51:57;;;;;;;3.25;0.70;;;15.50;79.50;;;;;;5045796;28;20490;-66
2022/07/06 06:54:22;;;;;;;6.88;1.20;;;15.50;79.80;;;;;;5047492;28;20033;-66
2022/07/06 06:56:48;;;;;;;5.20;1.13;;;15.60;79.50;;;;;;5039356;28;20079;-66
2022/07/06 06:59:13;;;;;;;4.57;0.80;;;15.60;78.90;;;;;;5046404;28;20113;-66
2022/07/06 07:01:38;;;;;;;5.50;1.00;;;15.80;78.50;;;;;;5042706;28;20037;-66
2022/07/06 07:04:05;;;;;;;4.97;1.02;;;15.90;78.00;;;;;;5049199;28;20434;-66
2022/07/06 07:06:31;;;;;;;7.80;0.82;;;15.80;77.80;;;;;;5044092;28;20021;-66
2022/07/06 07:08:57;;;;;;;4.70;0.82;;;16.00;78.30;;;;;;5041770;28;20134;-66
2022/07/06 07:11:22;;;;;;;4.30;0.90;;;16.10;77.50;;;;;;5044799;28;20697;-66
2022/07/06 07:13:48;;;;;;;4.15;0.95;;;16.10;76.70;;;;;;5048068;28;20068;-66
2022/07/06 07:16:13;;;;;;;4.45;0.90;;;16.20;76.40;;;;;;5041960;28;20036;-66
2022/07/06 07:18:39;;;;;;;5.90;0.73;;;16.40;76.20;;;;;;5049587;28;20053;-66
2022/07/06 07:21:04;;;;;;;4.78;0.70;;;16.40;74.10;;;;;;5048018;28;20520;-66
2022/07/06 07:23:30;;;;;;;6.45;1.02;;;16.50;74.90;;;;;;5049488;28;20037;-66
2022/07/06 07:25:55;;;;;;;3.08;0.85;;;16.50;74.00;;;;;;5041657;28;20041;-66
2022/07/06 07:28:21;;;;;;;3.03;0.98;;;16.50;74.30;;;;;;5046196;28;22031;-66
2022/07/06 07:30:46;;;;;;;3.85;0.80;;;16.60;74.30;;;;;;5043533;28;20041;-66
2022/07/06 07:33:12;;;;;;;4.05;0.80;;;16.70;74.70;;;;;;5048538;28;20105;-66
2022/07/06 07:35:38;;;;;;;2.95;0.50;;;16.50;73.00;;;;;;5050008;28;20464;-66
2022/07/06 07:38:04;;;;;;;5.75;0.60;;;16.60;72.80;;;;;;5041859;28;20480;-66
2022/07/06 07:40:29;;;;;;;4.35;0.60;;;16.80;73.30;;;;;;5047729;28;20035;-66
2022/07/06 07:42:55;;;;;;;5.10;0.88;;;16.70;73.00;;;;;;5047037;28;20060;-66
2022/07/06 07:45:20;;;;;;;3.00;0.70;;;16.50;74.00;;;;;;5046393;28;20150;-66
2022/07/06 07:47:46;;;;;;;3.17;0.73;;;16.50;73.60;;;;;;5045096;28;20567;-66
2022/07/06 07:50:12;;;;;;;2.33;0.50;;;16.30;74.00;;;;;;5048709;28;20025;-66
2022/07/06 07:52:37;;;;;;;3.80;0.45;;;16.50;74.10;;;;;;5047223;28;20066;-66
2022/07/06 07:55:04;;;;;;;1.38;0.50;;;16.60;73.30;;;;;;5048596;28;20329;-66
2022/07/06 07:57:29;;;;;;;1.73;0.85;;;16.60;73.50;;;;;;5043798;28;20367;-66
2022/07/06 07:59:55;;;;;;;3.58;0.63;;;16.70;73.70;;;;;;5046182;28;20033;-66
2022/07/06 08:02:20;;;;;;;2.60;0.57;;;16.80;74.70;;;;;;5048582;28;20052;-66
2022/07/06 08:04:46;;;;;;;1.98;0.43;;;17.00;74.40;;;;;;5043815;28;20548;-66
2022/07/06 08:07:11;;;;;;;2.80;0.32;;;16.40;74.40;;;;;;5037748;28;20061;-66
2022/07/06 08:09:37;;;;;;;1.63;0.40;;;16.50;74.70;;;;;;5032381;28;20440;-66
2022/07/06 08:12:03;;;;;;;2.63;0.45;;;16.80;74.90;;;;;;5041736;28;20029;-66
2022/07/06 08:14:28;;;;;;;3.88;0.30;;;16.70;74.10;;;;;;5042387;28;20603;-66
2022/07/06 08:16:54;;;;;;;2.15;0.40;;;16.70;74.40;;;;;;5049405;28;20033;-66
2022/07/06 08:19:19;;;;;;;2.35;0.30;;;17.00;72.60;;;;;;5042628;28;20061;-66
2022/07/06 08:21:45;;;;;;;0.20;0.10;;;17.20;70.20;;;;;;5045080;28;20017;-66
2022/07/06 08:24:11;;;;;;;1.30;0.30;;;17.20;70.60;;;;;;5036943;28;20039;-66
2022/07/06 08:26:37;;;;;;;1.33;0.50;;;17.30;69.70;;;;;;5039207;28;20041;-66
2022/07/06 08:29:03;;;;;;;3.10;0.38;;;17.20;68.80;;;;;;5041023;28;20029;-66
2022/07/06 08:31:29;;;;;;;1.85;0.47;;;17.40;67.00;;;;;;5033395;28;20333;-66
2022/07/06 08:33:55;;;;;;;1.00;0.10;;;17.50;65.20;;;;;;5042818;28;20025;-65
2022/07/06 08:36:21;;;;;;;1.08;0.20;;;17.40;65.40;;;;;;5040342;28;20036;-66
2022/07/06 08:38:47;;;;;;;3.08;0.50;;;17.50;66.10;;;;;;5044113;28;20021;-66
2022/07/06 08:41:15;;;;;;;1.00;0.17;;;17.80;65.80;;;;;;5041938;28;20037;-66
2022/07/06 08:43:40;;;;;;;1.15;0.57;;;18.20;63.90;;;;;;5044228;28;20415;-66
2022/07/06 08:46:07;;;;;;;1.65;0.30;;;18.20;64.00;;;;;;5038741;28;20086;-66
2022/07/06 08:48:36;;;;;;;1.08;0.40;;;18.00;63.20;;;;;;5037554;28;20174;-66
2022/07/06 08:51:03;;;;;;;1.65;0.30;;;18.00;64.20;;;;;;5042502;28;20025;-66
2022/07/06 08:53:28;;;;;;;3.63;0.40;;;18.60;63.30;;;;;;5040120;28;20033;-66
2022/07/06 08:55:54;;;;;;;3.08;0.30;;;18.10;63.00;;;;;;5043561;28;20077;-66
2022/07/06 08:58:23;;;;;;;1.98;0.40;;;18.30;63.40;;;;;;5038606;28;20041;-66
2022/07/06 09:00:49;;;;;;;1.80;0.35;;;18.20;62.70;;;;;;5044122;28;20029;-66
2022/07/06 09:03:14;;;;;;;2.35;0.77;;;18.40;63.50;;;;;;5045101;28;20037;-66
2022/07/06 09:05:44;;;;;;;3.95;0.60;;;18.20;62.80;;;;;;5042351;28;20040;-66
2022/07/06 09:08:11;;;;;;;1.65;0.43;;;18.40;64.10;;;;;;5036010;28;20190;-66
2022/07/06 09:10:37;;;;;;;3.80;0.70;;;18.50;63.50;;;;;;5042913;28;20112;-66
2022/07/06 09:13:04;;;;;;;4.32;0.60;;;18.60;63.80;;;;;;5051434;28;20186;-66
2022/07/06 09:15:31;;;;;;;3.38;0.70;;;18.60;63.10;;;;;;5039419;28;20114;-66
2022/07/06 09:17:57;;;;;;;2.80;0.80;;;18.40;63.40;;;;;;5044272;28;20037;-66
2022/07/06 09:20:23;;;;;;;1.50;0.57;;;18.10;65.00;;;;;;5043596;28;20040;-66
2022/07/06 09:22:49;;;;;;;2.55;0.60;;;18.60;63.80;;;;;;5041933;28;20543;-66
2022/07/06 09:25:16;;;;;;;3.95;0.60;;;19.30;62.70;;;;;;5041829;28;20152;-66
2022/07/06 09:27:54;;;;;;;0.90;0.30;;;19.20;61.90;;;;;;5037543;28;20457;-66
2022/07/06 09:30:22;;;;;;;4.95;0.73;;;19.70;59.90;;;;;;5044437;28;20043;-66
2022/07/06 09:32:52;;;;;;;1.48;0.50;;;19.40;60.20;;;;;;5049969;28;20314;-66
2022/07/06 09:35:23;;;;;;;1.40;0.60;;;18.60;62.60;;;;;;5048051;28;20055;-66
2022/07/06 09:38:01;;;;;;;1.48;0.60;;;18.30;64.30;;;;;;5046890;28;20114;-66
2022/07/06 09:40:26;;;;;;;2.50;0.50;;;17.80;66.00;;;;;;5046036;28;20033;-66
2022/07/06 09:43:07;;;;;;;3.10;0.55;;;17.00;65.60;;;;;;5042782;28;20026;-66
2022/07/06 09:45:34;;;;;;;;;;;16.70;67.70;;;;;;5044457;28;20387;-66
2022/07/06 09:48:06;;;;;;;0.77;0.30;;;16.60;68.20;;;;;;5045801;28;19913;-66
2022/07/06 09:50:43;;;;;;;2.30;0.57;;;16.20;66.80;;;;;;5038287;28;20037;-66
2022/07/06 09:53:09;;;;;;;1.83;0.38;;;16.30;67.00;;;;;;5046059;28;20021;-66
2022/07/06 09:55:35;;;;;;;1.40;0.28;;;16.40;67.20;;;;;;5034585;28;20083;-66
2022/07/06 09:58:02;;;;;;;1.73;0.35;;;16.40;67.60;;;;;;5043722;28;20037;-66
2022/07/06 10:00:28;;;;;;;1.20;0.50;;;16.50;67.30;;;;;;5048270;28;20029;-66
2022/07/06 10:02:54;;;;;;;1.25;0.40;;;16.50;67.60;;;;;;5047888;28;20037;-66
2022/07/06 10:05:26;;;;;;;0.65;0.15;;;16.70;67.00;;;;;;5042769;28;20116;-66
2022/07/06 10:07:53;;;;;;;2.03;0.60;;;16.80;67.60;;;;;;5046872;28;20075;-66
2022/07/06 10:10:19;;;;;;;1.60;0.30;;;16.80;67.30;;;;;;5038004;28;20116;-66
2022/07/06 10:12:49;;;;;;;2.00;0.30;;;17.20;66.40;;;;;;5034814;28;20037;-66
2022/07/06 10:15:18;;;;;;;1.13;0.30;;;17.50;66.50;;;;;;5033748;28;20188;-66
2022/07/06 10:17:45;;;;;;;2.05;0.40;;;18.00;65.50;;;;;;5037211;28;20164;-66
2022/07/06 10:20:11;;;;;;;1.73;0.40;;;17.90;65.80;;;;;;5039693;28;20049;-66
2022/07/06 10:22:40;;;;;;;1.15;0.25;;;17.90;65.00;;;;;;5049709;28;20553;-66
2022/07/06 10:25:07;;;;;;;2.58;0.45;;;18.10;65.00;;;;;;5043375;28;20132;-66
2022/07/06 10:27:34;;;;;;;2.00;0.30;;;18.40;64.10;;;;;;5046157;28;20025;-66
2022/07/06 10:30:01;;;;;;;1.27;0.55;;;18.30;63.00;;;;;;5045127;28;20032;-66
2022/07/06 10:32:27;;;;;;;4.53;0.63;;;18.80;63.00;;;;;;5055555;28;20037;-66
2022/07/06 10:34:53;;;;;;;3.83;0.50;;;19.10;62.30;;;;;;5043521;28;20048;-66
2022/07/06 10:37:26;;;;;;;3.15;0.80;;;19.20;60.70;;;;;;5052157;28;20100;-66
2022/07/06 10:42:54;;;;;;;1.80;0.60;;;19.10;60.50;;;;;;5047612;28;20051;-66
2022/07/06 10:45:28;;;;;;;2.80;0.50;;;19.20;61.70;;;;;;5045545;28;20056;-66
2022/07/06 10:48:12;;;;;;;3.17;0.70;;;19.30;59.90;;;;;;5049891;28;20029;-66
2022/07/06 10:50:49;;;;;;;1.60;0.30;;;19.50;60.40;;;;;;5040739;28;20480;-66
2022/07/06 10:53:26;;;;;;;1.33;0.30;;;19.70;59.00;;;;;;5048267;28;20537;-66
2022/07/06 10:55:54;;;;;;;3.80;0.47;;;20.10;59.40;;;;;;5040954;28;20021;-66
2022/07/06 10:58:42;;;;;;;3.63;0.43;;;20.00;59.90;;;;;;5042533;28;22272;-66
2022/07/06 11:01:09;;;;;;;1.40;0.20;;;19.90;60.40;;;;;;5034481;28;20060;-66
2022/07/06 11:03:46;;;;;;;0.85;0.50;;;19.50;59.70;;;;;;5051458;28;20444;-66
2022/07/06 11:06:22;;;;;;;3.38;0.40;;;18.80;61.20;;;;;;5039547;28;20127;-66
2022/07/06 11:09:02;;;;;;;1.83;0.30;;;18.60;60.00;;;;;;5045218;28;20079;-66
2022/07/06 11:11:33;;;;;;;2.67;0.65;;;18.20;61.40;;;;;;5043321;28;20032;-66
2022/07/06 11:14:04;;;;;;;1.25;0.30;;;18.00;62.20;;;;;;5046552;28;20114;-66
2022/07/06 11:16:36;;;;;;;1.45;0.40;;;18.20;62.60;;;;;;5047814;28;20440;-66
2022/07/06 11:19:14;;;;;;;2.13;0.43;;;18.00;63.70;;;;;;5042255;28;20533;-66
2022/07/06 11:21:56;;;;;;;1.42;0.38;;;17.80;64.30;;;;;;5047609;28;20452;-66
2022/07/06 11:24:26;;;;;;;2.10;0.77;;;17.50;65.50;;;;;;5047621;28;20029;-66
2022/07/06 11:26:53;;;;;;;2.38;0.60;;;17.60;66.90;;;;;;5050185;28;20202;-66
2022/07/06 11:29:21;;;;;;;0.93;0.52;;;17.80;65.90;;;;;;5044326;28;20029;-66
2022/07/06 11:31:47;;;;;;;1.10;0.40;;;18.10;65.80;;;;;;5048417;28;20035;-66
2022/07/06 11:34:18;;;;;;;2.40;0.40;;;18.40;65.20;;;;;;5045193;28;20486;-66
2022/07/06 11:36:43;;;;;;;2.97;0.77;;;18.40;65.20;;;;;;5041788;28;20045;-66
2022/07/06 11:39:09;;;;;;;2.95;0.60;;;18.60;65.20;;;;;;5042828;28;20045;-66
2022/07/06 11:41:36;;;;;;;0.75;0.30;;;18.80;63.90;;;;;;5036830;28;20029;-66
2022/07/06 11:44:03;;;;;;;1.60;0.50;;;18.80;63.90;;;;;;5048089;28;20021;-66
2022/07/06 11:46:30;;;;;;;3.28;0.70;;;18.90;64.70;;;;;;5047822;28;20029;-66
2022/07/06 11:49:05;;;;;;;5.13;0.43;;;19.80;61.90;;;;;;5044536;28;20056;-66
2022/07/06 11:51:35;;;;;;;3.38;0.73;;;20.20;60.00;;;;;;5048446;28;20356;-66
2022/07/06 11:54:09;;;;;;;2.15;0.45;;;20.10;59.50;;;;;;5036966;28;20048;-66
2022/07/06 11:56:35;;;;;;;1.05;0.40;;;19.20;60.50;;;;;;5045990;28;20036;-66
2022/07/06 11:59:01;;;;;;;4.85;0.40;;;19.00;61.70;;;;;;5041048;28;20036;-66
2022/07/06 12:01:30;;;;;;;2.70;0.70;;;18.90;62.70;;;;;;5041323;28;20045;-66
2022/07/06 12:04:03;;;;;;;3.88;0.60;;;18.80;64.10;;;;;;5035894;28;20049;-66
2022/07/06 12:06:29;;;;;;;2.72;0.57;;;18.70;63.30;;;;;;5040083;28;20039;-66
2022/07/06 12:08:57;;;;;;;2.65;0.43;;;18.50;63.20;;;;;;5042003;28;20021;-66
2022/07/06 12:11:24;;;;;;;1.13;0.20;;;18.80;62.70;;;;;;5045383;28;20029;-66
2022/07/06 12:13:52;;;;;;;1.75;0.43;;;19.10;62.10;;;;;;5040890;28;20411;-66
2022/07/06 12:16:18;;;;;;;2.25;0.50;;;20.30;58.70;;;;;;5042750;28;20437;-66
2022/07/06 12:18:47;;;;;;;3.72;0.40;;;20.40;56.50;;;;;;5040220;28;20061;-67
2022/07/06 12:21:16;;;;;;;0.30;0.10;;;20.80;56.30;;;;;;5044602;28;20074;-66
2022/07/06 12:23:48;;;;;;;0.77;0.30;;;21.50;55.70;;;;;;5045983;28;20436;-66
2022/07/06 12:26:15;;;;;;;1.40;0.35;;;20.80;54.20;;;;;;5042445;28;20131;-66
2022/07/06 12:28:42;;;;;;;0.70;0.25;;;20.50;55.70;;;;;;5048652;28;20048;-66
2022/07/06 12:31:09;;;;;;;2.75;0.60;;;20.10;57.40;;;;;;5044914;28;20063;-67
2022/07/06 12:33:35;;;;;;;1.85;0.50;;;20.30;58.30;;;;;;5045134;28;20028;-66
2022/07/06 12:36:20;;;;;;;1.58;0.40;;;19.90;58.10;;;;;;5044002;28;20029;-66
2022/07/06 12:38:48;;;;;;;1.98;0.30;;;19.50;57.90;;;;;;5041715;28;20037;-66
2022/07/06 12:41:33;;;;;;;1.40;0.50;;;19.50;58.10;;;;;;5045173;28;20037;-66
2022/07/06 12:44:08;;;;;;;0.17;0.13;;;20.10;57.10;;;;;;5036389;28;20494;-66
2022/07/06 12:46:39;;;;;;;1.67;0.20;;;21.10;55.20;;;;;;5039986;28;20116;-66
2022/07/06 12:49:12;;;;;;;0.75;0.35;;;20.50;54.80;;;;;;5038406;28;20170;-67
2022/07/06 12:51:56;;;;;;;3.03;0.20;;;20.00;54.80;;;;;;5045115;28;20075;-66